createdAt,value
2023-03-21T00:00:20.144Z,99841.78
2023-03-21T00:01:04.774Z,99845.66
2023-03-21T00:02:24.303Z,99842.09
2023-03-21T00:03:02.156Z,99843.06
2023-03-21T00:05:38.108Z,99839.28
2023-03-21T00:06:17.346Z,99844.97
2023-03-21T00:06:55.467Z,99842.03
2023-03-21T00:07:43.963Z,99842.84
2023-03-21T00:08:26.048Z,99839.66
2023-03-21T00:09:05.291Z,99840.97
2023-03-21T00:09:47.336Z,99838.94
2023-03-21T00:11:05.774Z,99839.66
2023-03-21T00:12:11.516Z,99844.75
2023-03-21T00:13:28.777Z,99838.25
2023-03-21T00:14:33.017Z,99844.03
2023-03-21T00:15:13.225Z,99842.97
2023-03-21T00:16:13.753Z,99845.97
2023-03-21T00:17:04.012Z,99842.50
2023-03-21T00:17:44.935Z,99834.31
2023-03-21T00:18:24.721Z,99841.31
2023-03-21T00:19:09.835Z,99834.19
2023-03-21T00:19:51.197Z,99841.31
2023-03-21T00:22:06.663Z,99838.25
2023-03-21T00:22:49.368Z,99834.53
2023-03-21T00:23:29.587Z,99837.88
2023-03-21T00:24:08.264Z,99830.16
2023-03-21T00:24:55.232Z,99828.28
2023-03-21T00:25:41.830Z,99827.44
2023-03-21T00:26:22.586Z,99821.88
2023-03-21T00:27:26.480Z,99829.59
2023-03-21T00:28:08.408Z,99823.03
2023-03-21T00:28:50.423Z,99828.13
2023-03-21T00:29:32.865Z,99825.06
2023-03-21T00:30:12.833Z,99822.81
2023-03-21T00:30:50.961Z,99825.66
2023-03-21T00:31:30.307Z,99823.03
2023-03-21T00:33:42.654Z,99815.78
2023-03-21T00:34:31.658Z,99818.16
2023-03-21T00:36:06.183Z,99821.88
2023-03-21T00:38:07.970Z,99817.00
2023-03-21T00:38:50.168Z,99815.78
2023-03-21T00:39:29.205Z,99815.19
2023-03-21T00:40:25.427Z,99814.47
2023-03-21T00:41:18.906Z,99811.88
2023-03-21T00:42:05.899Z,99809.97
2023-03-21T00:42:38.429Z,99814.25
2023-03-21T00:43:57.578Z,99805.72
2023-03-21T00:44:37.058Z,99810.09
2023-03-21T00:45:41.572Z,99810.09
2023-03-21T00:47:00.575Z,99811.53
2023-03-21T00:47:53.099Z,99806.53
2023-03-21T00:48:32.063Z,99806.28
2023-03-21T00:49:12.553Z,99801.66
2023-03-21T00:51:11.976Z,99805.00
2023-03-21T00:51:51.847Z,99800.72
2023-03-21T00:52:40.168Z,99798.34
2023-03-21T00:53:19.918Z,99802.03
2023-03-21T00:54:08.216Z,99798.94
2023-03-21T00:55:41.369Z,99800.72
2023-03-21T00:56:21.313Z,99795.63
2023-03-21T00:57:02.822Z,99792.41
2023-03-21T00:58:30.739Z,99791.56
2023-03-21T00:59:10.868Z,99797.28
2023-03-21T01:01:16.305Z,99788.84
2023-03-21T01:02:05.854Z,99790.53
2023-03-21T01:03:01.280Z,99787.78
2023-03-21T01:03:51.041Z,99787.66
2023-03-21T01:04:39.084Z,99787.16
2023-03-21T01:05:39.781Z,99793.47
2023-03-21T01:06:19.795Z,99780.41
2023-03-21T01:07:37.602Z,99784.91
2023-03-21T01:08:26.857Z,99772.66
2023-03-21T01:09:13.043Z,99787.63
2023-03-21T01:09:55.359Z,99781.38
2023-03-21T01:11:23.967Z,99782.78
2023-03-21T01:12:03.924Z,99780.28
2023-03-21T01:12:50.843Z,99786.94
2023-03-21T01:13:34.611Z,99777.66
2023-03-21T01:14:22.504Z,99778.84
2023-03-21T01:15:07.309Z,99775.06
2023-03-21T01:15:55.274Z,99773.50
2023-03-21T01:16:58.436Z,99778.38
2023-03-21T01:18:28.702Z,99773.75
2023-03-21T01:19:09.238Z,99775.16
2023-03-21T01:19:59.370Z,99774.09
2023-03-21T01:20:43.425Z,99776.56
2023-03-21T01:22:00.811Z,99774.09
2023-03-21T01:22:40.695Z,99764.81
2023-03-21T01:23:56.823Z,99764.34
2023-03-21T01:24:53.838Z,99762.53
2023-03-21T01:25:37.436Z,99771.34
2023-03-21T01:26:25.189Z,99760.16
2023-03-21T01:27:04.420Z,99760.72
2023-03-21T01:27:47.283Z,99764.06
2023-03-21T01:28:26.075Z,99758.59
2023-03-21T01:29:14.326Z,99766.31
2023-03-21T01:30:43.098Z,99758.72
2023-03-21T01:31:24.538Z,99757.63
2023-03-21T01:32:12.029Z,99758.72
2023-03-21T01:32:50.956Z,99761.19
2023-03-21T01:33:30.978Z,99757.97
2023-03-21T01:34:13.141Z,99758.56
2023-03-21T01:34:52.176Z,99759.63
2023-03-21T01:35:37.499Z,99761.31
2023-03-21T01:36:26.390Z,99763.22
2023-03-21T01:37:07.460Z,99766.50
2023-03-21T01:38:35.285Z,99760.31
2023-03-21T01:39:53.206Z,99766.13
2023-03-21T01:40:32.020Z,99758.50
2023-03-21T01:41:42.478Z,99756.38
2023-03-21T01:43:55.458Z,99760.31
2023-03-21T01:45:53.835Z,99764.13
2023-03-21T01:46:51.477Z,99766.38
2023-03-21T01:47:38.672Z,99761.22
2023-03-21T01:48:19.766Z,99763.16
2023-03-21T01:49:53.057Z,99758.91
2023-03-21T01:50:33.499Z,99748.94
2023-03-21T01:51:16.216Z,99754.16
2023-03-21T01:52:13.049Z,99757.03
2023-03-21T01:52:52.949Z,99752.22
2023-03-21T01:53:41.058Z,99755.41
2023-03-21T01:54:19.965Z,99758.59
2023-03-21T01:55:06.053Z,99759.75
2023-03-21T01:55:44.966Z,99750.25
2023-03-21T01:56:33.980Z,99751.97
2023-03-21T01:57:15.211Z,99755.88
2023-03-21T01:58:32.102Z,99766.66
2023-03-21T01:59:21.898Z,99770.22
2023-03-21T02:00:15.548Z,99765.47
2023-03-21T02:01:00.275Z,99762.81
2023-03-21T02:01:42.351Z,99757.94
2023-03-21T02:02:21.227Z,99757.09
2023-03-21T02:03:13.661Z,99754.53
2023-03-21T02:04:05.166Z,99766.03
2023-03-21T02:04:53.759Z,99762.25
2023-03-21T02:05:56.800Z,99762.47
2023-03-21T02:06:51.269Z,99761.41
2023-03-21T02:07:39.893Z,99757.56
2023-03-21T02:08:25.851Z,99755.88
2023-03-21T02:10:21.825Z,99765.50
2023-03-21T02:11:01.295Z,99759.25
2023-03-21T02:11:46.662Z,99757.09
2023-03-21T02:12:27.446Z,99768.47
2023-03-21T02:14:06.116Z,99752.47
2023-03-21T02:14:46.311Z,99754.13
2023-03-21T02:15:44.573Z,99759.50
2023-03-21T02:17:04.294Z,99758.44
2023-03-21T02:18:06.604Z,99752.38
2023-03-21T02:18:45.850Z,99756.28
2023-03-21T02:19:32.849Z,99755.94
2023-03-21T02:20:39.467Z,99754.63
2023-03-21T02:21:39.158Z,99758.00
2023-03-21T02:22:51.327Z,99756.56
2023-03-21T02:23:33.182Z,99761.06
2023-03-21T02:24:14.900Z,99754.53
2023-03-21T02:25:01.324Z,99754.25
2023-03-21T02:26:21.219Z,99745.41
2023-03-21T02:27:04.556Z,99748.59
2023-03-21T02:28:09.440Z,99751.53
2023-03-21T02:28:51.290Z,99755.47
2023-03-21T02:29:32.992Z,99758.84
2023-03-21T02:31:01.787Z,99757.00
2023-03-21T02:32:18.115Z,99752.66
2023-03-21T02:33:25.763Z,99744.03
2023-03-21T02:34:46.333Z,99752.69
2023-03-21T02:35:24.999Z,99749.72
2023-03-21T02:36:13.903Z,99754.94
2023-03-21T02:37:15.221Z,99749.22
2023-03-21T02:38:31.968Z,99749.88
2023-03-21T02:39:54.391Z,99744.97
2023-03-21T02:40:33.179Z,99746.91
2023-03-21T02:42:31.796Z,99752.88
2023-03-21T02:43:40.453Z,99754.03
2023-03-21T02:44:28.857Z,99749.97
2023-03-21T02:46:24.407Z,99753.59
2023-03-21T02:47:06.520Z,99757.44
2023-03-21T02:47:58.744Z,99755.75
2023-03-21T02:48:50.098Z,99758.50
2023-03-21T02:49:43.990Z,99761.56
2023-03-21T02:50:23.873Z,99751.69
2023-03-21T02:51:13.235Z,99762.97
2023-03-21T02:52:47.940Z,99752.59
2023-03-21T02:54:56.724Z,99756.50
2023-03-21T02:55:45.940Z,99745.22
2023-03-21T02:56:24.924Z,99752.69
2023-03-21T02:57:14.439Z,99750.97
2023-03-21T02:57:56.983Z,99744.66
2023-03-21T02:58:39.045Z,99756.03
2023-03-21T02:59:25.402Z,99751.47
2023-03-21T03:01:43.926Z,99749.88
2023-03-21T03:02:23.257Z,99742.56
2023-03-21T03:03:09.972Z,99751.22
2023-03-21T03:03:50.444Z,99757.75
2023-03-21T03:04:31.751Z,99753.09
2023-03-21T03:05:20.381Z,99748.72
2023-03-21T03:06:04.081Z,99744.91
2023-03-21T03:06:42.891Z,99754.78
2023-03-21T03:07:22.768Z,99743.41
2023-03-21T03:08:42.888Z,99747.41
2023-03-21T03:10:04.994Z,99753.19
2023-03-21T03:11:06.447Z,99747.22
2023-03-21T03:11:48.301Z,99745.66
2023-03-21T03:12:27.080Z,99739.91
2023-03-21T03:13:25.093Z,99745.66
2023-03-21T03:16:43.377Z,99739.34
2023-03-21T03:17:45.413Z,99755.00
2023-03-21T03:19:07.212Z,99748.47
2023-03-21T03:20:28.279Z,99744.41
2023-03-21T03:21:45.188Z,99741.94
2023-03-21T03:22:36.530Z,99742.91
2023-03-21T03:23:57.064Z,99742.34
2023-03-21T03:25:17.775Z,99742.44
2023-03-21T03:26:43.001Z,99741.94
2023-03-21T03:27:31.553Z,99737.03
2023-03-21T03:30:08.130Z,99748.47
2023-03-21T03:31:07.380Z,99740.03
2023-03-21T03:32:07.579Z,99741.09
2023-03-21T03:32:57.634Z,99739.19
2023-03-21T03:33:36.064Z,99738.09
2023-03-21T03:34:27.028Z,99732.88
2023-03-21T03:35:18.073Z,99733.38
2023-03-21T03:36:05.532Z,99738.50
2023-03-21T03:36:57.954Z,99734.63
2023-03-21T03:37:41.506Z,99741.94
2023-03-21T03:38:22.931Z,99733.72
2023-03-21T03:40:01.135Z,99743.56
2023-03-21T03:40:48.977Z,99737.53
2023-03-21T03:41:29.416Z,99735.81
2023-03-21T03:42:27.959Z,99735.81
2023-03-21T03:43:11.085Z,99737.25
2023-03-21T03:43:57.988Z,99733.44
2023-03-21T03:44:36.925Z,99732.94
2023-03-21T03:46:21.051Z,99733.91
2023-03-21T03:48:01.164Z,99738.13
2023-03-21T03:49:31.296Z,99739.81
2023-03-21T03:50:10.071Z,99740.59
2023-03-21T03:51:02.630Z,99734.34
2023-03-21T03:52:31.710Z,99738.94
2023-03-21T03:53:27.118Z,99732.72
2023-03-21T03:54:50.010Z,99735.22
2023-03-21T03:55:34.778Z,99739.88
2023-03-21T03:56:52.083Z,99743.94
2023-03-21T03:57:31.582Z,99744.16
2023-03-21T03:59:29.086Z,99747.03
2023-03-21T04:00:13.898Z,99747.53
2023-03-21T04:00:52.898Z,99751.56
2023-03-21T04:01:32.070Z,99748.84
2023-03-21T04:02:12.577Z,99742.94
2023-03-21T04:03:48.477Z,99753.88
2023-03-21T04:04:29.908Z,99751.41
2023-03-21T04:05:09.773Z,99751.88
2023-03-21T04:05:48.324Z,99754.34
2023-03-21T04:06:29.007Z,99755.19
2023-03-21T04:07:09.127Z,99759.00
2023-03-21T04:07:51.289Z,99750.41
2023-03-21T04:08:33.176Z,99758.16
2023-03-21T04:09:20.490Z,99754.09
2023-03-21T04:10:05.472Z,99748.97
2023-03-21T04:10:44.536Z,99756.13
2023-03-21T04:11:24.388Z,99750.31
2023-03-21T04:12:03.963Z,99755.31
2023-03-21T04:12:51.879Z,99759.69
2023-03-21T04:13:33.973Z,99757.09
2023-03-21T04:14:13.446Z,99761.97
2023-03-21T04:15:17.456Z,99761.13
2023-03-21T04:17:36.829Z,99758.25
2023-03-21T04:19:10.476Z,99761.56
2023-03-21T04:21:29.997Z,99761.03
2023-03-21T04:22:09.932Z,99770.66
2023-03-21T04:22:51.355Z,99776.22
2023-03-21T04:23:30.131Z,99765.06
2023-03-21T04:24:09.433Z,99763.41
2023-03-21T04:24:50.518Z,99766.59
2023-03-21T04:25:44.715Z,99764.25
2023-03-21T04:26:33.154Z,99764.38
2023-03-21T04:27:14.059Z,99755.69
2023-03-21T04:28:00.982Z,99770.19
2023-03-21T04:28:39.851Z,99762.59
2023-03-21T04:29:30.089Z,99761.25
2023-03-21T04:31:05.200Z,99763.41
2023-03-21T04:33:26.480Z,99762.94
2023-03-21T04:34:06.051Z,99772.81
2023-03-21T04:34:55.152Z,99768.41
2023-03-21T04:36:50.563Z,99762.34
2023-03-21T04:37:33.946Z,99765.94
2023-03-21T04:38:14.052Z,99771.72
2023-03-21T04:38:54.183Z,99766.88
2023-03-21T04:39:34.020Z,99767.81
2023-03-21T04:40:20.086Z,99766.41
2023-03-21T04:41:00.704Z,99769.84
2023-03-21T04:41:45.549Z,99764.28
2023-03-21T04:42:35.314Z,99766.53
2023-03-21T04:43:26.306Z,99777.19
2023-03-21T04:44:45.065Z,99776.03
2023-03-21T04:45:24.409Z,99770.56
2023-03-21T04:46:53.034Z,99779.22
2023-03-21T04:47:32.293Z,99775.19
2023-03-21T04:48:11.108Z,99764.28
2023-03-21T04:48:50.921Z,99774.59
2023-03-21T04:49:24.281Z,99768.78
2023-03-21T04:50:11.354Z,99771.53
2023-03-21T04:50:51.464Z,99770.47
2023-03-21T04:51:31.320Z,99773.41
2023-03-21T04:52:09.311Z,99773.78
2023-03-21T04:52:56.527Z,99771.16
2023-03-21T04:53:40.979Z,99775.78
2023-03-21T04:54:19.554Z,99773.66
2023-03-21T04:55:37.200Z,99772.47
2023-03-21T04:56:34.510Z,99776.38
2023-03-21T04:57:14.223Z,99768.78
2023-03-21T04:57:53.325Z,99772.09
2023-03-21T04:58:39.953Z,99774.94
2023-03-21T04:59:22.275Z,99769.53
2023-03-21T05:00:10.668Z,99772.34
2023-03-21T05:01:03.077Z,99769.97
2023-03-21T05:01:50.414Z,99776.16
2023-03-21T05:02:32.336Z,99781.38
2023-03-21T05:03:21.738Z,99777.94
2023-03-21T05:04:02.194Z,99783.13
2023-03-21T05:05:43.118Z,99788.75
2023-03-21T05:06:21.573Z,99785.28
2023-03-21T05:07:04.474Z,99784.81
2023-03-21T05:07:43.340Z,99784.22
2023-03-21T05:08:22.535Z,99787.53
2023-03-21T05:09:07.281Z,99782.34
2023-03-21T05:09:46.451Z,99778.19
2023-03-21T05:11:05.359Z,99775.09
2023-03-21T05:11:52.626Z,99782.09
2023-03-21T05:12:32.424Z,99781.72
2023-03-21T05:13:12.070Z,99782.31
2023-03-21T05:13:50.306Z,99773.66
2023-03-21T05:14:29.479Z,99779.44
2023-03-21T05:15:08.014Z,99774.91
2023-03-21T05:15:50.562Z,99775.84
2023-03-21T05:16:48.882Z,99782.53
2023-03-21T05:17:28.600Z,99782.53
2023-03-21T05:18:11.285Z,99775.19
2023-03-21T05:18:51.804Z,99770.91
2023-03-21T05:19:40.707Z,99780.03
2023-03-21T05:20:30.041Z,99783.00
2023-03-21T05:21:10.889Z,99774.56
2023-03-21T05:21:50.765Z,99784.19
2023-03-21T05:22:54.899Z,99784.50
2023-03-21T05:25:45.925Z,99778.81
2023-03-21T05:26:28.385Z,99783.72
2023-03-21T05:27:07.101Z,99779.22
2023-03-21T05:27:54.258Z,99781.19
2023-03-21T05:28:36.340Z,99783.56
2023-03-21T05:29:14.374Z,99791.88
2023-03-21T05:29:50.174Z,99785.31
2023-03-21T05:30:33.002Z,99784.25
2023-03-21T05:31:22.073Z,99789.25
2023-03-21T05:32:04.148Z,99788.75
2023-03-21T05:32:43.382Z,99793.13
2023-03-21T05:33:32.375Z,99790.53
2023-03-21T05:34:15.478Z,99785.06
2023-03-21T05:35:33.392Z,99784.31
2023-03-21T05:36:25.342Z,99789.31
2023-03-21T05:38:19.089Z,99787.03
2023-03-21T05:40:59.494Z,99787.94
2023-03-21T05:41:41.328Z,99791.88
2023-03-21T05:42:21.206Z,99791.38
2023-03-21T05:43:04.092Z,99796.03
2023-03-21T05:44:09.140Z,99788.84
2023-03-21T05:44:49.196Z,99799.06
2023-03-21T05:45:36.806Z,99798.03
2023-03-21T05:46:15.485Z,99795.06
2023-03-21T05:46:55.130Z,99790.78
2023-03-21T05:47:34.160Z,99802.03
2023-03-21T05:48:54.177Z,99798.34
2023-03-21T05:49:33.683Z,99797.00
2023-03-21T05:50:13.706Z,99805.81
2023-03-21T05:51:02.008Z,99795.44
2023-03-21T05:51:42.429Z,99794.16
2023-03-21T05:52:31.357Z,99799.22
2023-03-21T05:53:34.924Z,99796.66
2023-03-21T05:54:54.350Z,99802.31
2023-03-21T05:56:13.429Z,99801.06
2023-03-21T05:58:35.504Z,99802.47
2023-03-21T05:59:42.021Z,99801.38
2023-03-21T06:00:22.272Z,99797.66
2023-03-21T06:01:01.368Z,99797.16
2023-03-21T06:01:40.502Z,99806.28
2023-03-21T06:02:28.087Z,99807.19
2023-03-21T06:03:10.220Z,99801.47
2023-03-21T06:03:50.481Z,99811.94
2023-03-21T06:05:18.349Z,99804.53
2023-03-21T06:05:57.074Z,99801.03
2023-03-21T06:06:46.273Z,99799.78
2023-03-21T06:08:16.708Z,99801.16
2023-03-21T06:09:34.427Z,99800.78
2023-03-21T06:10:14.435Z,99796.47
2023-03-21T06:12:36.877Z,99797.28
2023-03-21T06:13:24.266Z,99794.69
2023-03-21T06:14:49.791Z,99788.72
2023-03-21T06:15:28.115Z,99789.31
2023-03-21T06:16:10.561Z,99790.75
2023-03-21T06:16:59.345Z,99792.44
2023-03-21T06:17:37.526Z,99792.09
2023-03-21T06:18:19.425Z,99790.25
2023-03-21T06:19:06.999Z,99793.38
2023-03-21T06:19:49.581Z,99793.91
2023-03-21T06:20:41.408Z,99794.13
2023-03-21T06:22:19.114Z,99790.88
2023-03-21T06:22:59.119Z,99790.97
2023-03-21T06:24:19.241Z,99794.22
2023-03-21T06:24:58.553Z,99792.22
2023-03-21T06:29:48.064Z,99799.66
2023-03-21T06:30:37.295Z,99794.66
2023-03-21T06:31:16.289Z,99801.88
2023-03-21T06:32:07.589Z,99806.41
2023-03-21T06:32:47.426Z,99799.81
2023-03-21T06:33:26.752Z,99808.38
2023-03-21T06:34:06.682Z,99811.06
2023-03-21T06:34:47.343Z,99804.69
2023-03-21T06:35:26.608Z,99805.91
2023-03-21T06:36:31.696Z,99810.56
2023-03-21T06:38:13.781Z,99806.97
2023-03-21T06:39:17.814Z,99810.09
2023-03-21T06:39:57.477Z,99803.56
2023-03-21T06:40:36.374Z,99800.84
2023-03-21T06:41:17.901Z,99804.75
2023-03-21T06:42:06.149Z,99806.91
2023-03-21T06:44:00.576Z,99802.78
2023-03-21T06:44:49.262Z,99806.34
2023-03-21T06:45:29.000Z,99806.47
2023-03-21T06:46:55.097Z,99801.09
2023-03-21T06:47:59.642Z,99802.38
2023-03-21T06:48:47.390Z,99805.50
2023-03-21T06:49:37.609Z,99807.78
2023-03-21T06:50:16.694Z,99807.25
2023-03-21T06:50:56.987Z,99807.31
2023-03-21T06:51:36.048Z,99802.63
2023-03-21T06:52:27.628Z,99798.63
2023-03-21T06:53:07.541Z,99802.94
2023-03-21T06:53:56.408Z,99811.09
2023-03-21T06:54:36.356Z,99807.09
2023-03-21T06:55:27.103Z,99815.38
2023-03-21T06:56:32.349Z,99800.03
2023-03-21T06:57:03.967Z,99807.00
2023-03-21T06:57:44.681Z,99808.06
2023-03-21T07:00:59.060Z,99810.38
2023-03-21T07:01:38.643Z,99812.09
2023-03-21T07:03:19.394Z,99819.38
2023-03-21T07:03:59.629Z,99811.97
2023-03-21T07:06:11.952Z,99819.41
2023-03-21T07:08:31.732Z,99814.63
2023-03-21T07:09:28.150Z,99821.41
2023-03-21T07:11:32.592Z,99814.81
2023-03-21T07:12:11.690Z,99810.53
2023-03-21T07:15:10.056Z,99813.63
2023-03-21T07:15:49.694Z,99818.44
2023-03-21T07:17:05.005Z,99813.63
2023-03-21T07:18:49.317Z,99819.72
2023-03-21T07:20:47.199Z,99823.03
2023-03-21T07:21:34.987Z,99818.16
2023-03-21T07:24:02.912Z,99819.00
2023-03-21T07:25:04.262Z,99816.22
2023-03-21T07:25:52.823Z,99822.28
2023-03-21T07:26:33.551Z,99823.56
2023-03-21T07:27:25.561Z,99829.63
2023-03-21T07:28:09.338Z,99825.31
2023-03-21T07:28:58.304Z,99814.06
2023-03-21T07:29:47.372Z,99826.22
2023-03-21T07:30:39.780Z,99825.47
2023-03-21T07:31:19.921Z,99825.19
2023-03-21T07:31:59.079Z,99823.81
2023-03-21T07:33:43.196Z,99826.22
2023-03-21T07:34:22.905Z,99827.59
2023-03-21T07:35:01.964Z,99825.53
2023-03-21T07:35:44.509Z,99830.13
2023-03-21T07:36:26.661Z,99829.84
2023-03-21T07:37:17.047Z,99828.75
2023-03-21T07:39:28.679Z,99825.03
2023-03-21T07:43:59.757Z,99836.38
2023-03-21T07:45:25.644Z,99827.44
2023-03-21T07:47:26.480Z,99831.16
2023-03-21T07:49:03.314Z,99839.44
2023-03-21T07:49:52.544Z,99833.44
2023-03-21T07:50:57.626Z,99833.19
2023-03-21T07:54:23.067Z,99838.91
2023-03-21T07:55:11.041Z,99835.66
2023-03-21T07:56:01.145Z,99831.97
2023-03-21T07:56:42.986Z,99828.22
2023-03-21T07:57:51.618Z,99834.06
2023-03-21T07:59:52.646Z,99833.44
2023-03-21T08:00:32.242Z,99835.16
2023-03-21T08:01:26.948Z,99831.31
2023-03-21T08:02:07.482Z,99825.84
2023-03-21T08:02:57.857Z,99834.09
2023-03-21T08:03:40.661Z,99820.22
2023-03-21T08:04:22.848Z,99831.09
2023-03-21T08:05:12.989Z,99829.44
2023-03-21T08:05:53.216Z,99816.75
2023-03-21T08:06:33.206Z,99834.13
2023-03-21T08:07:15.585Z,99840.19
2023-03-21T08:08:48.770Z,99832.22
2023-03-21T08:10:31.221Z,99834.19
2023-03-21T08:12:48.234Z,99828.66
2023-03-21T08:13:31.683Z,99826.19
2023-03-21T08:16:12.706Z,99832.00
2023-03-21T08:17:04.917Z,99830.13
2023-03-21T08:17:54.310Z,99828.25
2023-03-21T08:18:57.830Z,99830.72
2023-03-21T08:20:28.028Z,99817.53
2023-03-21T08:21:10.871Z,99821.38
2023-03-21T08:21:52.334Z,99820.00
2023-03-21T08:26:19.147Z,99818.59
2023-03-21T08:28:31.634Z,99812.06
2023-03-21T08:34:03.059Z,99818.53
2023-03-21T08:34:43.518Z,99818.81
2023-03-21T08:36:35.107Z,99816.59
2023-03-21T08:37:55.438Z,99821.28
2023-03-21T08:39:13.233Z,99809.47
2023-03-21T08:40:02.288Z,99817.44
2023-03-21T08:43:24.991Z,99819.94
2023-03-21T08:44:34.919Z,99811.41
2023-03-21T08:46:16.191Z,99812.22
2023-03-21T08:46:56.976Z,99821.59
2023-03-21T08:47:28.769Z,99817.47
2023-03-21T08:52:40.179Z,99806.16
2023-03-21T08:53:23.052Z,99811.94
2023-03-21T08:54:52.298Z,99814.97
2023-03-21T08:55:43.678Z,99808.34
2023-03-21T08:57:17.520Z,99801.19
2023-03-21T08:57:58.699Z,99805.28
2023-03-21T08:58:46.165Z,99803.66
2023-03-21T08:59:28.699Z,99809.19
2023-03-21T09:00:21.944Z,99809.44
2023-03-21T09:01:42.257Z,99808.91
2023-03-21T09:03:27.528Z,99811.09
2023-03-21T09:04:08.558Z,99813.84
2023-03-21T09:04:59.092Z,99817.44
2023-03-21T09:06:30.054Z,99814.41
2023-03-21T09:07:18.204Z,99811.06
2023-03-21T09:08:04.568Z,99805.28
2023-03-21T09:08:43.567Z,99804.72
2023-03-21T09:09:30.463Z,99807.22
2023-03-21T09:10:20.220Z,99812.16
2023-03-21T09:11:13.308Z,99802.53
2023-03-21T09:12:45.683Z,99795.31
2023-03-21T09:13:26.742Z,99800.53
2023-03-21T09:14:10.022Z,99803.00
2023-03-21T09:14:59.315Z,99812.66
2023-03-21T09:15:41.680Z,99794.47
2023-03-21T09:18:00.744Z,99808.09
2023-03-21T09:19:35.286Z,99808.88
2023-03-21T09:20:26.507Z,99804.69
2023-03-21T09:21:13.002Z,99802.09
2023-03-21T09:21:52.329Z,99807.97
2023-03-21T09:22:31.356Z,99811.88
2023-03-21T09:23:03.273Z,99803.31
2023-03-21T09:24:23.474Z,99802.09
2023-03-21T09:25:08.489Z,99801.50
2023-03-21T09:27:28.337Z,99808.31
2023-03-21T09:28:08.720Z,99804.72
2023-03-21T09:28:50.738Z,99802.28
2023-03-21T09:29:32.579Z,99803.31
2023-03-21T09:30:25.573Z,99809.59
2023-03-21T09:31:11.744Z,99813.47
2023-03-21T09:31:54.528Z,99812.03
2023-03-21T09:32:46.416Z,99815.91
2023-03-21T09:33:26.621Z,99808.25
2023-03-21T09:34:05.747Z,99814.84
2023-03-21T09:34:46.858Z,99807.84
2023-03-21T09:35:31.538Z,99806.72
2023-03-21T09:36:14.430Z,99807.44
2023-03-21T09:38:10.024Z,99810.28
2023-03-21T09:38:59.858Z,99813.63
2023-03-21T09:40:21.456Z,99806.91
2023-03-21T09:41:11.993Z,99803.84
2023-03-21T09:42:08.621Z,99813.81
2023-03-21T09:43:10.833Z,99800.56
2023-03-21T09:44:12.734Z,99802.75
2023-03-21T09:44:52.038Z,99805.25
2023-03-21T09:45:52.704Z,99799.16
2023-03-21T09:47:29.517Z,99806.00
2023-03-21T09:48:36.074Z,99803.72
2023-03-21T09:49:20.156Z,99800.56
2023-03-21T09:50:20.733Z,99797.81
2023-03-21T09:51:15.952Z,99799.66
2023-03-21T09:52:06.040Z,99800.38
2023-03-21T09:52:58.832Z,99793.81
2023-03-21T09:53:44.426Z,99790.91
2023-03-21T09:54:48.341Z,99787.00
2023-03-21T09:55:39.714Z,99792.69
2023-03-21T09:56:33.414Z,99789.34
2023-03-21T09:57:54.111Z,99796.28
2023-03-21T09:58:53.219Z,99791.66
2023-03-21T09:59:59.167Z,99798.47
2023-03-21T10:02:41.778Z,99789.25
2023-03-21T10:05:59.979Z,99789.25
2023-03-21T10:06:41.498Z,99796.84
2023-03-21T10:07:25.102Z,99795.38
2023-03-21T10:08:06.449Z,99804.72
2023-03-21T10:08:49.782Z,99795.44
2023-03-21T10:09:32.821Z,99794.81
2023-03-21T10:10:29.088Z,99790.75
2023-03-21T10:12:51.382Z,99792.53
2023-03-21T10:13:32.012Z,99786.66
2023-03-21T10:14:39.844Z,99787.84
2023-03-21T10:16:14.543Z,99794.78
2023-03-21T10:17:22.357Z,99792.72
2023-03-21T10:18:06.181Z,99791.94
2023-03-21T10:18:54.543Z,99786.94
2023-03-21T10:20:29.992Z,99787.72
2023-03-21T10:21:43.040Z,99792.53
2023-03-21T10:22:29.702Z,99794.06
2023-03-21T10:23:33.284Z,99788.75
2023-03-21T10:24:37.642Z,99791.38
2023-03-21T10:26:21.575Z,99788.44
2023-03-21T10:26:56.738Z,99787.78
2023-03-21T10:27:46.812Z,99793.78
2023-03-21T10:29:50.501Z,99786.97
2023-03-21T10:30:53.751Z,99784.28
2023-03-21T10:31:57.804Z,99791.94
2023-03-21T10:34:16.415Z,99783.06
2023-03-21T10:36:02.493Z,99789.75
2023-03-21T10:37:29.723Z,99787.09
2023-03-21T10:38:09.905Z,99787.16
2023-03-21T10:41:03.027Z,99782.72
2023-03-21T10:41:44.759Z,99785.84
2023-03-21T10:42:50.408Z,99774.06
2023-03-21T10:43:41.151Z,99776.94
2023-03-21T10:44:47.127Z,99779.16
2023-03-21T10:48:59.394Z,99771.16
2023-03-21T10:49:40.259Z,99766.00
2023-03-21T10:50:18.065Z,99770.69
2023-03-21T10:53:22.425Z,99773.50
2023-03-21T10:55:32.310Z,99769.06
2023-03-21T10:56:15.327Z,99770.56
2023-03-21T10:57:09.624Z,99761.38
2023-03-21T10:58:19.080Z,99765.69
2023-03-21T10:58:58.464Z,99768.63
2023-03-21T10:59:47.320Z,99763.38
2023-03-21T11:00:27.531Z,99768.06
2023-03-21T11:01:15.119Z,99765.97
2023-03-21T11:05:40.799Z,99761.72
2023-03-21T11:06:32.715Z,99751.94
2023-03-21T11:09:47.003Z,99760.53
2023-03-21T11:12:57.562Z,99744.91
2023-03-21T11:14:34.168Z,99749.72
2023-03-21T11:15:41.811Z,99740.47
2023-03-21T11:16:27.610Z,99742.88
2023-03-21T11:19:14.570Z,99742.16
2023-03-21T11:24:50.660Z,99735.22
2023-03-21T11:25:42.037Z,99744.09
2023-03-21T11:26:31.327Z,99735.28
2023-03-21T11:27:12.924Z,99739.16
2023-03-21T11:30:17.437Z,99744.84
2023-03-21T11:31:25.042Z,99728.09
2023-03-21T11:32:05.266Z,99732.41
2023-03-21T11:32:46.292Z,99734.47
2023-03-21T11:33:32.853Z,99730.16
2023-03-21T11:34:39.314Z,99714.00
2023-03-21T11:35:32.833Z,99723.63
2023-03-21T11:36:23.922Z,99722.34
2023-03-21T11:38:04.211Z,99717.38
2023-03-21T11:38:44.058Z,99720.78
2023-03-21T11:39:49.647Z,99724.56
2023-03-21T11:40:52.037Z,99711.25
2023-03-21T11:41:31.610Z,99720.00
2023-03-21T11:42:48.477Z,99712.75
2023-03-21T11:45:12.067Z,99706.19
2023-03-21T11:46:04.492Z,99710.59
2023-03-21T11:46:43.536Z,99708.34
2023-03-21T11:47:22.931Z,99704.22
2023-03-21T11:49:31.873Z,99716.59
2023-03-21T11:50:24.700Z,99704.94
2023-03-21T11:51:04.398Z,99710.31
2023-03-21T11:52:08.767Z,99707.94
2023-03-21T11:53:50.905Z,99702.00
2023-03-21T11:55:06.101Z,99700.09
2023-03-21T11:56:01.938Z,99700.84
2023-03-21T11:56:47.714Z,99698.16
2023-03-21T11:57:34.759Z,99692.56
2023-03-21T11:59:33.695Z,99694.03
2023-03-21T12:01:41.947Z,99688.03
2023-03-21T12:02:23.430Z,99680.63
2023-03-21T12:03:11.390Z,99683.53
2023-03-21T12:04:18.632Z,99687.41
2023-03-21T12:05:56.260Z,99685.47
2023-03-21T12:06:55.365Z,99679.16
2023-03-21T12:07:44.773Z,99677.03
2023-03-21T12:11:03.529Z,99671.53
2023-03-21T12:12:03.593Z,99674.91
2023-03-21T12:13:01.354Z,99665.09
2023-03-21T12:13:46.603Z,99671.84
2023-03-21T12:15:03.922Z,99665.28
2023-03-21T12:16:16.337Z,99659.84
2023-03-21T12:17:33.583Z,99666.47
2023-03-21T12:18:45.334Z,99663.06
2023-03-21T12:19:25.422Z,99662.25
2023-03-21T12:20:29.256Z,99656.97
2023-03-21T12:21:20.864Z,99661.19
2023-03-21T12:22:58.035Z,99660.44
2023-03-21T12:24:35.839Z,99656.13
2023-03-21T12:25:14.439Z,99657.38
2023-03-21T12:26:12.604Z,99649.97
2023-03-21T12:29:27.464Z,99656.00
2023-03-21T12:31:02.004Z,99648.75
2023-03-21T12:32:33.844Z,99650.16
2023-03-21T12:33:24.392Z,99644.84
2023-03-21T12:34:30.934Z,99652.97
2023-03-21T12:35:19.016Z,99651.53